الصفحة الرئيسية
METAR-TAF:

METAR-TAF

مطار :

Laoag, الفلبين

دائرة عرض: 18-11N, خط طول: 120-32E, ارتفاع: 4 متر

مراقبة الطقس الحالي

تاريخ ووقت الإصدار 37 دقيقة قبل الساعة 03:00UTC
ريح 20 عقدة من الشمال تتزايد حتى 32 عقدة
درجة الحرارة 24°درجة مئوية
الرطوبة 89%
ضغط 1012 hPa
الرؤية 10 كم أو أكثر
غيوم قليلة على ارتفاع 1800 قدم
غيوم مفككة على ارتفاع 9000 قدم

METAR: RPLI 060300Z 06003KT 01020G32KT 9999 FEW018 BKN090 24/22 Q1012 RESHRA NOSIG RMK A2988

زمن: 11:37 (03:37 UTC)

توقعات

تاريخ ووقت الإصدار 4ساعات و 37 دقيقة قبل الساعة 23:00UTC
التوقعات صالحة من06 الساعة 00 UTC إلى 06 الساعة 24 UTC
ريح 14 عقدة من الشمال/الشمال الشرقي
الرؤية: 8000 متر
غيوم متفرقة على ارتفاع 1800 قدم
غيوم مفككة على ارتفاع 10000 قدم
مؤقت
من 06 الساعة 07 UTC إلى 06 الساعة 12 UTC
ريح 12 عقدة من الشمال تتزايد حتى 30 عقدة
غيوم متفرقة على ارتفاع 1800 قدم
ملبد بالغيوم على ارتفاع 10000 قدم

TAF: RPLI 052300Z 0600/0624 02014KT 8000 SCT018 BKN100 TEMPO 0607/0612 36012G30KT SCT018 OVC100

أرصاد الطقس والتوقعات من أكثر من 4000 مطار (تقارير الطقس للمطار METAR والتنبؤ بالطقس بالمطارTAF).

المحطات المتاحة هي النقط الصفراء والحمراء على الخريطة.

حرك المؤشر فوق النقطة لمعرفة اسم المحطة.

ثم انقر لمعرفة أرصاد وتوقعات الطقس.

لتغيير الخارطة: اضغط على الأزرار الخضراء مع رمز الصليب الأسود للتكبير. على الزر الأخضر مع شرطة للتصغير، أو على الأسهم الخضراء للخرائط المجاورة.


METAR-TAF: